• Join FlightAware (Why Join?)
  • Login
  • US Flag 
10:29PM EDT


 

Airport Tracker/Info


-or-


 

Live Flight TrackerFlight Track Log ✈ N363NH ✈ 07-Nov-2013 ✈ KPDX - KBFI

Flight Track Log - Related Links

Times and Time Zones

All times are in EST time to prevent confusion due to time zone crossing. See the N363NH flight status page for this flight to view local times or setup timezone preferences in your user account.

Time Position Orientation Groundspeed Altitude Reporting Facility
EST Latitude Longitude Course Direction KTS MPH feet Rate Location/Type
03:29AM 45.5961 -122.5969 299° West 168 193 700  Level Seattle Center
03:30AM 45.6186 -122.6556 299° West 226 260 4,100 4,320 Climbing Seattle Center
03:30AM 45.6314 -122.6847 302° West 216 249 6,000 4,680 Climbing Seattle Center
03:31AM 45.6722 -122.7172 331° Northwest 289 333 8,800 5,100 Climbing Seattle Center
03:31AM 45.7025 -122.7219 354° North 278 320 11,100 4,260 Climbing Seattle Center
03:32AM 45.7878 -122.7286 357° North 305 351 14,800 2,340 Climbing Seattle Center
03:33AM 45.8892 -122.7428 354° North 367 422 15,800 600 Climbing Seattle Center
03:34AM 45.9906 -122.7569 354° North 366 421 16,000 60 Climbing Seattle Center
03:35AM 46.0875 -122.7719 354° North 354 407 16,000  Level Seattle Center
03:36AM 46.1856 -122.7878 354° North 354 407 16,000  Level Seattle Center
03:37AM 46.2814 -122.8008 355° North 351 404 16,000  Level Seattle Center
03:38AM 46.3792 -122.8175 353° North 353 406 16,000 -60 Level Seattle Center
03:39AM 46.4750 -122.8339 353° North 350 403 15,900 -60 Descending Seattle Center
03:40AM 46.5750 -122.8417 357° North 362 417 15,900  Level Seattle Center
03:41AM 46.6383 -122.8553 352° North 356 410 15,900  Level Seattle Center
03:41AM 46.6614 -122.8592 353° North 356 410 15,900  Level Seattle Center
03:41AM 46.6733 -122.8572 North 359 413 15,900  Level Seattle Center
03:42AM 46.7597 -122.8714 354° North 359 413 15,900  Level Seattle Center
03:42AM 46.7753 -122.8711 North 361 415 15,900  Level Seattle Center
03:43AM 46.8608 -122.8853 354° North 360 414 15,900  Level Seattle Center
03:43AM 46.8756 -122.8869 356° North 362 417 15,900  Level Seattle Center
03:44AM 46.9553 -122.8994 354° North 344 396 15,900  Level Seattle Center
03:44AM 46.9694 -122.8972 North 346 398 15,900 -120 Level Seattle Center
03:45AM 47.0394 -122.8189 37° Northeast 380 437 15,800 -240 Descending Seattle Center
03:45AM 47.0528 -122.8011 42° Northeast 379 436 15,700 -1,380 Descending Seattle Center
03:46AM 47.1247 -122.7081 41° Northeast 380 437 14,400 -1,440 Descending Seattle Center
03:46AM 47.1294 -122.6997 50° Northeast 372 428 14,300 -2,100 Descending Seattle Center
03:47AM 47.1989 -122.6322 33° Northeast 327 376 12,300 -2,100 Descending Seattle Center
03:47AM 47.2056 -122.6303 11° North 325 374 12,200 -1,500 Descending Seattle Center
03:48AM 47.2806 -122.6303 360° North 273 314 10,800 -1,620 Descending Seattle Center
03:48AM 47.2853 -122.6292 North 284 327 10,600 -2,040 Descending Seattle Center
03:49AM 47.3550 -122.6258 North 257 296 8,800 -2,040 Descending Seattle Center
03:49AM 47.3603 -122.6253 North 271 312 8,600 -2,220 Descending Seattle Center
03:50AM 47.4272 -122.6225 North 260 299 6,600 -2,220 Descending Seattle Center
03:50AM 47.4322 -122.6200 19° North 261 300 6,400 -1,500 Descending Seattle Center
03:51AM 47.5000 -122.6025 10° North 261 300 5,100 -1,320 Descending Seattle Center
03:51AM 47.5039 -122.6000 23° Northeast 259 298 5,100 -120 Level Seattle Center
03:52AM 47.5686 -122.5844 North 253 291 5,000 -120 Descending Seattle Center
03:52AM 47.5736 -122.5833 North 254 292 5,000 -720 Level Seattle Center
03:53AM 47.6339 -122.5522 19° North 252 290 4,300 -900 Descending Seattle Center
03:53AM 47.6358 -122.5469 61° Northeast 243 280 4,100 -1,620 Descending Seattle Center
03:54AM 47.6669 -122.4717 58° Northeast 222 255 2,700 -1,620 Descending Seattle Center
03:54AM 47.6689 -122.4661 63° Northeast 226 260 2,500 -540 Descending Seattle Center
03:55AM 47.6494 -122.4022 114° Southeast 183 211 2,200 -300 Descending Seattle Center
03:55AM 47.6458 -122.3994 153° Southeast 190 219 2,200 -600 Level Seattle Center
03:56AM 47.6086 -122.3722 154° Southeast 157 181 1,600 -600 Descending Seattle Center
03:56AM 47.6058 -122.3675 131° Southeast 166 191 1,600 -840 Level Seattle Center
03:57AM 47.5744 -122.3419 151° Southeast 133 153 800 -840 Descending Seattle Center
03:57AM 47.5739 -122.3406 121° Southeast 135 155 800 -540 Level Seattle Center
03:58AM 47.5481 -122.3169 148° Southeast 120 138 300 -540 Descending Seattle Center
03:58AM 47.5467 -122.3169 180° South 128 147 300 -240 Level Seattle Center
03:59AM 47.5175 -122.2919 150° Southeast 127 146 100 -240 Descending Seattle Center